Time;durP1;ratioP1;P1;durP2;ratioP2;P2;SDS_P1;SDS_P2;PMS_P1;PMS_P2;Temp;Humidity;BMP_temperature;BMP_pressure;BME280_temperature;BME280_humidity;BME280_pressure;Samples;Min_cycle;Max_cycle;Signal;HPM_P1;HPM_P2
2023/12/10 00:01:33;;;;;;;40.38;20.08;;;6.50;77.80;;;;;;4960174;29;20444;-74
2023/12/10 00:04:00;;;;;;;46.28;23.13;;;6.60;77.70;;;;;;4960383;29;20098;-74
2023/12/10 00:06:25;;;;;;;43.47;21.08;;;6.60;77.70;;;;;;4960072;29;20057;-74
2023/12/10 00:08:51;;;;;;;44.80;22.73;;;6.60;77.70;;;;;;4960011;29;20055;-74
2023/12/10 00:11:18;;;;;;;47.10;22.77;;;6.50;77.80;;;;;;4960466;29;20031;-74
2023/12/10 00:13:43;;;;;;;46.03;22.63;;;6.60;77.70;;;;;;4960228;29;20027;-73
2023/12/10 00:16:09;;;;;;;48.08;23.67;;;6.50;77.90;;;;;;4960414;29;20054;-74
2023/12/10 00:18:35;;;;;;;42.95;21.25;;;6.50;78.00;;;;;;4960283;29;20341;-74
2023/12/10 00:21:01;;;;;;;47.55;22.77;;;6.60;78.10;;;;;;4959887;29;20038;-74
2023/12/10 00:23:28;;;;;;;45.92;22.00;;;6.60;78.30;;;;;;4960315;29;20034;-74
2023/12/10 00:25:54;;;;;;;46.20;22.02;;;6.60;78.10;;;;;;4959782;29;20041;-74
2023/12/10 00:28:20;;;;;;;51.08;22.27;;;6.60;78.20;;;;;;4959643;29;20433;-74
2023/12/10 00:30:47;;;;;;;47.50;22.55;;;6.60;78.20;;;;;;4958361;28;20027;-74
2023/12/10 00:33:15;;;;;;;53.15;21.77;;;6.60;78.10;;;;;;4959538;29;20325;-74
2023/12/10 00:35:41;;;;;;;55.33;25.67;;;6.70;78.00;;;;;;4959857;29;20027;-74
2023/12/10 00:38:07;;;;;;;55.30;24.50;;;6.70;78.10;;;;;;4959456;29;20027;-74
2023/12/10 00:40:33;;;;;;;54.97;25.63;;;6.60;77.90;;;;;;4959446;29;20452;-74
2023/12/10 00:42:59;;;;;;;57.83;25.08;;;6.60;78.20;;;;;;4959348;29;20027;-73
2023/12/10 00:45:25;;;;;;;55.03;24.20;;;6.60;78.10;;;;;;4959550;29;20074;-74
2023/12/10 00:47:51;;;;;;;54.40;24.38;;;6.60;78.20;;;;;;4959606;29;20039;-74
2023/12/10 00:50:18;;;;;;;54.05;25.15;;;6.60;78.20;;;;;;4958953;28;20417;-74
2023/12/10 00:52:43;;;;;;;53.75;23.27;;;6.60;78.30;;;;;;4958240;29;20023;-74
2023/12/10 00:55:10;;;;;;;46.45;22.70;;;6.60;78.20;;;;;;4959221;29;20057;-74
2023/12/10 00:57:36;;;;;;;53.60;24.02;;;6.60;78.30;;;;;;4959126;29;20035;-74
2023/12/10 01:00:04;;;;;;;51.88;24.15;;;6.50;78.40;;;;;;4959057;29;20035;-74
2023/12/10 01:02:30;;;;;;;58.85;24.98;;;6.60;78.40;;;;;;4959641;29;20451;-74
2023/12/10 01:04:56;;;;;;;70.97;29.65;;;6.60;78.30;;;;;;4959048;29;20453;-74
2023/12/10 01:07:23;;;;;;;66.15;28.38;;;6.60;78.40;;;;;;4959003;29;20513;-74
2023/12/10 01:09:49;;;;;;;61.63;25.85;;;6.60;78.50;;;;;;4958786;29;21995;-74
2023/12/10 01:12:14;;;;;;;58.95;24.98;;;6.50;78.30;;;;;;4959412;29;20099;-74
2023/12/10 01:14:41;;;;;;;64.13;28.25;;;6.50;78.80;;;;;;4958889;29;20031;-74
2023/12/10 01:17:08;;;;;;;59.97;23.95;;;6.50;78.80;;;;;;4958780;29;20027;-74
2023/12/10 01:19:34;;;;;;;60.40;26.17;;;6.50;78.70;;;;;;4957665;29;20031;-74
2023/12/10 01:22:00;;;;;;;57.53;23.73;;;6.50;78.90;;;;;;4959447;29;20047;-74
2023/12/10 01:24:26;;;;;;;52.30;21.95;;;6.50;78.90;;;;;;4958720;29;20023;-75
2023/12/10 01:26:52;;;;;;;64.68;27.48;;;6.50;78.70;;;;;;4959166;29;20464;-74
2023/12/10 01:29:18;;;;;;;50.45;21.88;;;6.50;78.90;;;;;;4958568;29;20557;-74
2023/12/10 01:31:44;;;;;;;51.25;23.48;;;6.50;78.70;;;;;;4959025;29;20070;-74
2023/12/10 01:34:10;;;;;;;54.60;22.05;;;6.60;78.90;;;;;;4958766;29;20023;-74
2023/12/10 01:36:36;;;;;;;49.38;23.75;;;6.60;78.60;;;;;;4958513;29;20026;-74
2023/12/10 01:39:03;;;;;;;56.80;23.55;;;6.60;78.50;;;;;;4958596;29;20078;-74
2023/12/10 01:41:30;;;;;;;54.00;22.67;;;6.60;78.50;;;;;;4958356;28;20051;-74
2023/12/10 01:43:56;;;;;;;52.35;21.88;;;6.60;78.50;;;;;;4957239;29;20360;-74
2023/12/10 01:46:22;;;;;;;63.55;26.30;;;6.60;78.50;;;;;;4958826;29;20437;-74
2023/12/10 01:48:50;;;;;;;43.45;20.63;;;6.50;78.40;;;;;;4957960;29;20042;-74
2023/12/10 01:51:16;;;;;;;51.38;22.92;;;6.50;78.10;;;;;;4958116;29;20453;-74
2023/12/10 01:53:42;;;;;;;45.97;20.30;;;6.50;78.30;;;;;;4958384;29;20356;-74
2023/12/10 01:56:10;;;;;;;46.47;21.45;;;6.50;78.40;;;;;;4957055;29;20023;-74
2023/12/10 01:58:37;;;;;;;51.05;22.98;;;6.50;78.60;;;;;;4958233;29;20020;-74
2023/12/10 02:01:05;;;;;;;51.90;23.35;;;6.50;78.80;;;;;;4958289;29;20035;-74
2023/12/10 02:03:33;;;;;;;53.58;22.40;;;6.60;78.80;;;;;;4958225;29;20101;-74
2023/12/10 02:05:59;;;;;;;42.85;21.38;;;6.60;78.80;;;;;;4958217;29;20023;-74
2023/12/10 02:08:25;;;;;;;50.05;23.30;;;6.60;78.80;;;;;;4958358;29;20028;-74
2023/12/10 02:10:51;;;;;;;52.17;22.48;;;6.60;78.60;;;;;;4958313;29;20445;-74
2023/12/10 02:13:17;;;;;;;49.22;22.35;;;6.60;78.60;;;;;;4957789;29;20034;-74
2023/12/10 02:15:43;;;;;;;46.95;20.13;;;6.60;78.50;;;;;;4957996;29;20019;-74
2023/12/10 02:18:09;;;;;;;48.63;21.60;;;6.60;78.40;;;;;;4958264;29;20028;-74
2023/12/10 02:20:35;;;;;;;46.75;21.30;;;6.60;78.60;;;;;;4957752;29;20038;-74
2023/12/10 02:23:24;;;;;;;46.55;22.63;;;6.60;78.60;;;;;;4957687;29;20031;-74
2023/12/10 02:25:51;;;;;;;48.95;22.20;;;6.60;78.40;;;;;;4958135;29;20059;-73
2023/12/10 02:28:22;;;;;;;45.55;20.30;;;6.60;78.70;;;;;;4957496;29;20031;-74
2023/12/10 02:30:49;;;;;;;49.63;22.35;;;6.70;78.60;;;;;;4957458;29;20062;-74
2023/12/10 02:33:15;;;;;;;47.13;20.95;;;6.70;78.60;;;;;;4957468;29;20031;-74
2023/12/10 02:35:41;;;;;;;48.60;20.27;;;6.60;78.50;;;;;;4957755;29;20397;-74
2023/12/10 02:38:08;;;;;;;47.15;20.73;;;6.70;78.40;;;;;;4957702;29;20483;-74
2023/12/10 02:40:34;;;;;;;46.60;22.67;;;6.70;78.50;;;;;;4956455;29;20460;-74
2023/12/10 02:43:00;;;;;;;58.75;23.73;;;6.70;78.50;;;;;;4957642;29;20027;-74
2023/12/10 02:45:26;;;;;;;47.47;21.98;;;6.70;78.60;;;;;;4957274;29;20027;-74
2023/12/10 02:47:52;;;;;;;51.35;21.88;;;6.60;78.70;;;;;;4957830;29;20326;-74
2023/12/10 02:50:18;;;;;;;46.47;21.63;;;6.60;78.80;;;;;;4956997;28;20090;-74
2023/12/10 02:52:44;;;;;;;50.20;21.65;;;6.60;78.80;;;;;;4958009;29;20023;-74
2023/12/10 02:55:10;;;;;;;48.47;20.75;;;6.60;78.70;;;;;;4956487;28;20033;-74
2023/12/10 02:57:37;;;;;;;51.70;23.02;;;6.60;78.40;;;;;;4957236;29;20054;-74
2023/12/10 03:00:05;;;;;;;52.53;23.65;;;6.60;78.60;;;;;;4957284;29;20028;-74
2023/12/10 03:02:31;;;;;;;52.03;23.38;;;6.50;78.70;;;;;;4957386;29;20046;-74
2023/12/10 03:04:57;;;;;;;51.25;22.63;;;6.50;78.70;;;;;;4957101;29;20027;-74
2023/12/10 03:07:23;;;;;;;51.40;21.88;;;6.40;78.90;;;;;;4957643;29;20038;-74
2023/12/10 03:09:48;;;;;;;49.08;22.52;;;6.40;78.90;;;;;;4957488;29;20038;-74
2023/12/10 03:12:14;;;;;;;47.28;21.30;;;6.40;79.00;;;;;;4957484;29;20039;-74
2023/12/10 03:14:40;;;;;;;50.10;22.73;;;6.40;79.10;;;;;;4957072;29;20078;-74
2023/12/10 03:17:06;;;;;;;49.40;20.80;;;6.40;79.10;;;;;;4957060;29;20027;-73
2023/12/10 03:19:32;;;;;;;50.33;24.08;;;6.40;79.00;;;;;;4957468;29;20027;-74
2023/12/10 03:21:58;;;;;;;53.83;24.77;;;6.40;79.10;;;;;;4957505;29;20498;-74
2023/12/10 03:24:24;;;;;;;57.17;24.73;;;6.30;79.20;;;;;;4956927;29;20396;-74
2023/12/10 03:26:50;;;;;;;48.40;22.98;;;6.30;79.20;;;;;;4957002;29;20035;-74
2023/12/10 03:29:16;;;;;;;60.78;26.20;;;6.30;79.30;;;;;;4957199;29;20082;-74
2023/12/10 03:31:43;;;;;;;49.25;22.13;;;6.30;79.50;;;;;;4957397;29;20035;-74
2023/12/10 03:34:09;;;;;;;46.15;22.20;;;6.20;79.40;;;;;;4957149;29;20452;-74
2023/12/10 03:36:35;;;;;;;49.65;23.23;;;6.30;79.40;;;;;;4956863;29;20054;-74
2023/12/10 03:39:02;;;;;;;45.13;21.63;;;6.30;79.40;;;;;;4956970;29;20095;-74
2023/12/10 03:41:28;;;;;;;51.55;22.73;;;6.30;79.20;;;;;;4956832;29;20045;-74
2023/12/10 03:43:54;;;;;;;53.33;23.65;;;6.30;79.40;;;;;;4956803;29;20039;-74
2023/12/10 03:46:19;;;;;;;49.97;23.63;;;6.30;79.30;;;;;;4957311;29;20027;-74
2023/12/10 03:48:45;;;;;;;46.33;22.25;;;6.30;79.50;;;;;;4956504;29;20099;-74
2023/12/10 03:51:11;;;;;;;43.30;20.95;;;6.30;79.40;;;;;;4957256;29;20031;-74
2023/12/10 03:53:37;;;;;;;44.03;21.98;;;6.30;79.40;;;;;;4956970;29;20023;-74
2023/12/10 03:56:04;;;;;;;53.03;23.98;;;6.30;79.30;;;;;;4956976;29;20020;-74
2023/12/10 03:58:30;;;;;;;64.60;27.10;;;6.30;79.20;;;;;;4956646;29;20038;-74
2023/12/10 04:00:56;;;;;;;50.30;24.38;;;6.30;79.10;;;;;;4956908;29;20035;-74
2023/12/10 04:03:22;;;;;;;51.75;23.65;;;6.20;79.00;;;;;;4956904;29;20031;-74
2023/12/10 04:05:48;;;;;;;47.47;22.45;;;6.20;79.20;;;;;;4958871;28;20341;-74
2023/12/10 04:08:14;;;;;;;50.75;23.85;;;6.20;79.30;;;;;;4960581;29;20035;-74
2023/12/10 04:10:40;;;;;;;51.88;24.45;;;6.30;79.20;;;;;;4960001;29;20402;-74
2023/12/10 04:13:07;;;;;;;47.30;23.05;;;6.20;79.20;;;;;;4960544;29;20440;-74
2023/12/10 04:15:33;;;;;;;54.25;25.13;;;6.20;79.00;;;;;;4960211;29;20326;-74
2023/12/10 04:18:00;;;;;;;54.85;24.92;;;6.10;79.20;;;;;;4960442;29;20023;-74
2023/12/10 04:20:26;;;;;;;43.70;22.65;;;6.00;79.50;;;;;;4959808;29;20035;-74
2023/12/10 04:22:52;;;;;;;51.72;24.05;;;5.90;79.40;;;;;;4959886;29;20031;-74
2023/12/10 04:25:18;;;;;;;45.92;22.50;;;5.90;79.50;;;;;;4960249;29;20115;-73
2023/12/10 04:27:44;;;;;;;45.13;20.92;;;5.90;79.70;;;;;;4960263;29;20035;-74
2023/12/10 04:30:11;;;;;;;40.05;19.92;;;5.90;79.60;;;;;;4959604;29;20354;-73
2023/12/10 04:32:37;;;;;;;41.38;20.67;;;5.90;79.60;;;;;;4959614;29;20035;-74
2023/12/10 04:35:04;;;;;;;44.80;21.58;;;6.00;79.70;;;;;;4959628;29;20023;-74
2023/12/10 04:37:30;;;;;;;40.70;20.50;;;6.00;79.60;;;;;;4959607;29;20107;-74
2023/12/10 04:39:57;;;;;;;46.72;22.60;;;6.00;79.60;;;;;;4959481;29;20102;-74
2023/12/10 04:42:23;;;;;;;43.10;21.00;;;6.10;79.60;;;;;;4959746;29;20031;-74
2023/12/10 04:44:50;;;;;;;47.20;21.05;;;6.10;79.60;;;;;;4959403;29;20220;-74
2023/12/10 04:47:16;;;;;;;40.65;20.83;;;6.10;79.40;;;;;;4959940;29;20027;-74
2023/12/10 04:49:42;;;;;;;51.97;24.38;;;6.10;79.40;;;;;;4959059;29;20050;-74
2023/12/10 04:52:08;;;;;;;46.53;22.52;;;6.10;79.30;;;;;;4959785;29;20031;-74
2023/12/10 04:54:34;;;;;;;50.60;25.80;;;6.10;79.50;;;;;;4959510;29;20039;-74
2023/12/10 04:57:00;;;;;;;44.40;20.00;;;6.10;79.50;;;;;;4959486;29;20356;-74
2023/12/10 04:59:26;;;;;;;47.63;22.65;;;6.10;79.30;;;;;;4959107;29;20024;-74
2023/12/10 05:01:52;;;;;;;44.42;20.92;;;6.10;79.30;;;;;;4959611;29;20485;-74
2023/12/10 05:04:18;;;;;;;44.40;22.10;;;6.10;79.20;;;;;;4959326;29;20024;-74
2023/12/10 05:06:44;;;;;;;43.20;20.88;;;6.10;79.30;;;;;;4959551;29;20082;-74
2023/12/10 05:09:11;;;;;;;41.80;21.35;;;6.10;79.30;;;;;;4959202;29;20035;-73
2023/12/10 05:11:37;;;;;;;42.88;19.90;;;6.10;79.20;;;;;;4959137;29;20047;-73
2023/12/10 05:14:04;;;;;;;40.80;20.92;;;6.10;79.10;;;;;;4958922;29;20042;-74
2023/12/10 05:16:30;;;;;;;48.65;20.88;;;6.10;79.20;;;;;;4958555;28;20450;-74
2023/12/10 05:18:56;;;;;;;43.55;19.20;;;6.00;79.10;;;;;;4958859;29;20025;-74
2023/12/10 05:21:22;;;;;;;41.15;21.30;;;6.00;79.20;;;;;;4959051;29;20102;-74
2023/12/10 05:23:48;;;;;;;53.15;23.67;;;6.00;79.30;;;;;;4958735;29;20456;-74
2023/12/10 05:26:14;;;;;;;42.92;21.95;;;5.90;79.40;;;;;;4958711;29;20027;-74
2023/12/10 05:28:40;;;;;;;43.38;21.80;;;5.90;79.30;;;;;;4958610;29;20106;-74
2023/12/10 05:31:06;;;;;;;40.85;19.73;;;5.90;79.30;;;;;;4958523;29;20038;-74
2023/12/10 05:33:33;;;;;;;42.60;21.58;;;5.90;79.40;;;;;;4958868;29;20027;-74
2023/12/10 05:35:59;;;;;;;50.05;23.08;;;5.90;79.50;;;;;;4958456;29;20035;-74
2023/12/10 05:38:25;;;;;;;42.70;19.80;;;5.90;79.60;;;;;;4958898;29;20030;-74
2023/12/10 05:40:51;;;;;;;39.58;20.80;;;5.90;79.60;;;;;;4958645;29;20094;-74
2023/12/10 05:43:20;;;;;;;47.08;21.67;;;5.90;79.80;;;;;;4958862;29;20023;-75
2023/12/10 05:45:46;;;;;;;54.88;24.83;;;5.90;79.90;;;;;;4957318;29;20114;-74
2023/12/10 05:48:12;;;;;;;43.30;21.60;;;5.90;80.30;;;;;;4958286;29;20496;-74
2023/12/10 05:50:38;;;;;;;50.75;23.27;;;5.90;80.40;;;;;;4957909;29;20440;-74
2023/12/10 05:53:04;;;;;;;47.22;21.70;;;5.90;80.20;;;;;;4958166;29;20027;-74
2023/12/10 05:55:30;;;;;;;50.85;23.00;;;5.90;80.20;;;;;;4958154;29;20356;-73
2023/12/10 05:57:56;;;;;;;52.65;22.80;;;5.90;80.40;;;;;;4958111;29;20078;-74
2023/12/10 06:00:23;;;;;;;49.33;23.40;;;5.90;80.20;;;;;;4957018;29;20338;-74
2023/12/10 06:02:49;;;;;;;47.38;20.60;;;5.90;80.30;;;;;;4958558;29;20030;-74
2023/12/10 06:05:15;;;;;;;52.00;20.90;;;5.90;80.20;;;;;;4958008;29;20027;-73
2023/12/10 06:07:41;;;;;;;51.75;22.50;;;5.90;80.40;;;;;;4957911;29;20039;-74
2023/12/10 06:10:08;;;;;;;51.72;23.42;;;5.90;80.50;;;;;;4958254;29;20031;-74
2023/12/10 06:12:34;;;;;;;51.35;23.20;;;5.90;80.50;;;;;;4958078;29;20023;-74
2023/12/10 06:15:00;;;;;;;49.88;21.52;;;5.90;80.70;;;;;;4957710;29;20023;-74
2023/12/10 06:17:26;;;;;;;62.22;25.52;;;5.90;80.40;;;;;;4958295;29;20077;-74
2023/12/10 06:19:53;;;;;;;52.60;23.20;;;5.90;80.60;;;;;;4957846;29;20364;-74
2023/12/10 06:22:19;;;;;;;44.83;21.85;;;5.90;80.80;;;;;;4957950;29;20038;-74
2023/12/10 06:24:45;;;;;;;41.42;20.13;;;5.90;81.20;;;;;;4957588;29;20027;-74
2023/12/10 06:27:11;;;;;;;71.10;24.02;;;5.80;81.00;;;;;;4957862;29;20027;-74
2023/12/10 06:29:37;;;;;;;48.50;20.92;;;5.80;81.10;;;;;;4957508;28;20459;-74
2023/12/10 06:32:03;;;;;;;45.13;21.05;;;5.80;81.00;;;;;;4957730;29;20121;-74
2023/12/10 06:34:29;;;;;;;59.47;24.05;;;5.80;81.00;;;;;;4957495;29;20055;-73
2023/12/10 06:36:56;;;;;;;46.63;20.05;;;5.80;81.00;;;;;;4957497;29;20047;-74
2023/12/10 06:39:22;;;;;;;51.17;22.50;;;5.90;81.10;;;;;;4957411;29;20023;-74
2023/12/10 06:41:48;;;;;;;53.67;23.15;;;5.90;80.90;;;;;;4957937;29;20345;-74
2023/12/10 06:44:21;;;;;;;44.83;20.83;;;5.90;81.00;;;;;;4957887;29;20035;-74
2023/12/10 06:46:51;;;;;;;42.83;20.58;;;5.90;81.20;;;;;;4958163;29;20436;-74
2023/12/10 06:49:18;;;;;;;49.75;22.95;;;5.90;81.00;;;;;;4957252;29;20495;-74
2023/12/10 06:51:44;;;;;;;43.70;20.00;;;5.90;81.00;;;;;;4957232;29;20027;-74
2023/12/10 06:54:11;;;;;;;48.17;21.67;;;5.90;81.00;;;;;;4957535;29;20032;-74
2023/12/10 06:56:41;;;;;;;52.03;24.27;;;6.00;81.10;;;;;;4957755;29;20031;-74
2023/12/10 06:59:07;;;;;;;46.88;22.25;;;6.00;80.90;;;;;;4957694;29;20070;-74
2023/12/10 07:01:37;;;;;;;48.20;22.25;;;6.10;81.00;;;;;;4957087;29;20089;-74
2023/12/10 07:04:07;;;;;;;44.45;21.48;;;6.10;81.10;;;;;;4956527;29;20034;-74
2023/12/10 07:06:34;;;;;;;51.95;24.23;;;6.10;80.90;;;;;;4957448;29;20039;-74
2023/12/10 07:09:00;;;;;;;45.67;20.90;;;6.20;80.90;;;;;;4957137;29;20459;-76
2023/12/10 07:11:26;;;;;;;47.88;21.15;;;6.10;80.70;;;;;;4957022;29;20043;-73
2023/12/10 07:13:55;;;;;;;41.63;20.35;;;6.20;80.70;;;;;;4957070;29;20027;-77
2023/12/10 07:16:22;;;;;;;39.35;19.40;;;6.20;80.70;;;;;;4957583;29;20091;-76
2023/12/10 07:18:48;;;;;;;46.42;20.83;;;6.20;80.50;;;;;;4957001;29;20027;-75
2023/12/10 07:21:14;;;;;;;45.95;20.60;;;6.20;80.50;;;;;;4957344;29;20027;-75
2023/12/10 07:23:41;;;;;;;46.22;21.10;;;6.20;80.50;;;;;;4957556;29;20035;-75
2023/12/10 07:26:07;;;;;;;46.28;22.13;;;6.20;80.40;;;;;;4957046;29;20027;-75
2023/12/10 07:28:33;;;;;;;38.78;18.52;;;6.20;80.40;;;;;;4956935;29;20031;-75
2023/12/10 07:31:00;;;;;;;41.05;19.40;;;6.20;80.40;;;;;;4957326;29;20082;-75
2023/12/10 07:33:26;;;;;;;47.33;21.95;;;6.20;80.40;;;;;;4957150;29;20028;-75
2023/12/10 07:35:52;;;;;;;43.55;19.88;;;6.20;80.30;;;;;;4957663;29;20030;-75
2023/12/10 07:38:18;;;;;;;46.30;19.83;;;6.30;80.30;;;;;;5223940;23;20075;-69
2023/12/10 07:43:14;;;;;;;40.50;19.95;;;6.30;80.30;;;;;;5244757;23;20047;-65
2023/12/10 07:45:42;;;;;;;42.53;19.80;;;6.40;80.30;;;;;;4961070;29;20325;-65
2023/12/10 07:48:08;;;;;;;37.47;18.45;;;6.40;80.20;;;;;;4960808;29;20043;-66
2023/12/10 07:50:34;;;;;;;54.40;24.25;;;6.40;80.20;;;;;;4960393;29;20031;-65
2023/12/10 07:53:01;;;;;;;42.17;19.35;;;6.40;80.40;;;;;;4960561;29;20066;-65
2023/12/10 07:55:27;;;;;;;42.15;18.85;;;6.40;80.20;;;;;;4960623;29;20042;-65
2023/12/10 07:57:53;;;;;;;66.13;31.13;;;6.40;80.20;;;;;;4960794;29;20094;-66
2023/12/10 08:00:20;;;;;;;45.95;21.83;;;6.40;80.10;;;;;;4960447;29;20027;-65
2023/12/10 08:02:45;;;;;;;45.85;21.27;;;6.40;80.20;;;;;;4960345;29;20027;-65
2023/12/10 08:05:12;;;;;;;47.35;22.88;;;6.40;80.20;;;;;;4960694;29;20089;-68
2023/12/10 08:07:38;;;;;;;41.00;20.60;;;6.40;80.30;;;;;;4960104;29;20162;-66
2023/12/10 08:10:05;;;;;;;46.75;22.25;;;6.40;80.30;;;;;;4960511;29;20031;-68
2023/12/10 08:12:31;;;;;;;38.88;20.52;;;6.50;79.90;;;;;;4958926;29;20105;-67
2023/12/10 08:14:57;;;;;;;44.83;20.90;;;6.50;80.00;;;;;;4959842;29;20035;-66
2023/12/10 08:17:23;;;;;;;46.65;21.58;;;6.40;80.10;;;;;;4960449;29;20049;-67
2023/12/10 08:19:49;;;;;;;46.67;22.20;;;6.50;80.00;;;;;;4960389;29;20023;-66
2023/12/10 08:22:16;;;;;;;42.95;21.00;;;6.40;79.70;;;;;;4960285;29;20451;-66
2023/12/10 08:24:43;;;;;;;47.03;21.88;;;6.40;80.00;;;;;;4959813;29;20039;-65
2023/12/10 08:27:09;;;;;;;51.85;22.95;;;6.40;80.00;;;;;;4959980;29;20039;-65
2023/12/10 08:29:35;;;;;;;45.42;21.48;;;6.40;80.00;;;;;;4959716;29;20023;-66
2023/12/10 08:32:01;;;;;;;46.97;22.17;;;6.40;80.00;;;;;;4959986;29;20034;-65
2023/12/10 08:34:28;;;;;;;42.72;20.77;;;6.40;80.10;;;;;;4959883;29;20433;-65
2023/12/10 08:36:53;;;;;;;42.85;21.42;;;6.40;80.10;;;;;;4959542;29;20034;-65
2023/12/10 08:39:20;;;;;;;41.42;20.40;;;6.40;80.10;;;;;;4960008;29;20102;-65
2023/12/10 08:41:46;;;;;;;47.33;20.98;;;6.40;80.30;;;;;;4959401;29;20450;-66
2023/12/10 08:44:12;;;;;;;48.22;21.45;;;6.50;80.40;;;;;;4959355;29;20074;-66
2023/12/10 08:46:38;;;;;;;46.13;21.33;;;6.50;80.30;;;;;;4959644;29;20028;-65
2023/12/10 08:49:04;;;;;;;42.20;21.08;;;6.60;80.20;;;;;;4959591;29;20027;-65
2023/12/10 08:51:30;;;;;;;44.55;22.42;;;6.60;80.20;;;;;;4958484;28;20038;-65
2023/12/10 08:53:59;;;;;;;35.28;17.35;;;6.60;80.20;;;;;;4959349;29;20035;-66
2023/12/10 08:56:26;;;;;;;38.13;18.45;;;6.70;80.10;;;;;;4959221;29;20023;-65
2023/12/10 08:58:52;;;;;;;39.75;19.88;;;6.60;80.10;;;;;;4959144;29;20464;-65
2023/12/10 09:01:18;;;;;;;46.97;21.15;;;6.70;79.70;;;;;;4959387;29;20031;-66
2023/12/10 09:03:45;;;;;;;40.15;19.33;;;6.70;79.80;;;;;;4959494;29;20090;-66
2023/12/10 09:06:12;;;;;;;33.13;18.17;;;6.70;79.80;;;;;;4959545;29;20032;-65
2023/12/10 09:08:39;;;;;;;41.50;19.80;;;6.70;79.60;;;;;;4959011;29;20054;-66
2023/12/10 09:11:05;;;;;;;40.08;19.65;;;6.70;79.70;;;;;;4959078;29;20027;-66
2023/12/10 09:13:32;;;;;;;45.88;22.23;;;6.80;79.60;;;;;;4958964;29;20429;-66
2023/12/10 09:15:58;;;;;;;44.67;22.27;;;6.80;79.70;;;;;;4958882;29;20027;-66
2023/12/10 09:18:25;;;;;;;43.60;20.60;;;6.80;79.80;;;;;;4958626;29;20090;-66
2023/12/10 09:20:52;;;;;;;46.50;22.05;;;6.80;79.60;;;;;;4959022;29;20019;-68
2023/12/10 09:23:19;;;;;;;45.88;21.02;;;6.80;79.80;;;;;;4958142;29;20392;-67
2023/12/10 09:25:45;;;;;;;40.17;19.90;;;6.80;79.90;;;;;;4958628;29;20115;-67
2023/12/10 09:28:12;;;;;;;41.97;21.15;;;6.90;79.80;;;;;;4959052;29;20064;-66
2023/12/10 09:30:38;;;;;;;47.53;23.40;;;6.90;79.70;;;;;;4958983;29;20031;-66
2023/12/10 09:33:07;;;;;;;47.50;23.30;;;6.90;79.60;;;;;;4958345;29;20028;-65
2023/12/10 09:35:33;;;;;;;46.00;23.20;;;6.90;79.60;;;;;;4957436;29;20459;-67
2023/12/10 09:38:00;;;;;;;46.35;23.38;;;6.90;79.70;;;;;;4958611;29;20043;-67
2023/12/10 09:40:27;;;;;;;41.78;19.83;;;6.90;79.60;;;;;;4958543;29;20097;-68
2023/12/10 09:42:53;;;;;;;52.58;25.45;;;6.90;79.60;;;;;;4958278;29;20055;-67
2023/12/10 09:45:19;;;;;;;43.40;22.33;;;6.90;79.30;;;;;;4958829;29;20106;-67
2023/12/10 09:47:47;;;;;;;49.20;23.17;;;7.00;79.60;;;;;;4958284;29;20114;-67
2023/12/10 09:50:14;;;;;;;50.03;24.13;;;7.00;79.40;;;;;;4958683;29;20037;-66
2023/12/10 09:52:40;;;;;;;48.78;23.00;;;7.00;78.90;;;;;;4958356;29;20027;-69
2023/12/10 09:55:06;;;;;;;53.03;24.55;;;7.00;79.10;;;;;;4958887;29;20027;-67
2023/12/10 09:57:32;;;;;;;45.65;22.05;;;7.00;79.20;;;;;;4958480;29;20416;-67
2023/12/10 09:59:59;;;;;;;46.35;22.95;;;7.00;79.20;;;;;;4957989;29;20035;-68
2023/12/10 10:02:36;;;;;;;46.28;23.05;;;7.10;79.50;;;;;;4957570;28;20031;-65
2023/12/10 10:05:03;;;;;;;52.60;24.70;;;7.10;79.20;;;;;;4958106;29;20543;-67
2023/12/10 10:07:32;;;;;;;57.65;25.33;;;7.10;79.30;;;;;;4957886;29;20033;-67
2023/12/10 10:09:59;;;;;;;47.42;22.90;;;7.20;79.30;;;;;;4957789;29;20023;-68
2023/12/10 10:12:33;;;;;;;43.95;22.88;;;7.20;79.40;;;;;;4957654;29;20098;-66
2023/12/10 10:15:00;;;;;;;45.78;21.55;;;7.20;79.10;;;;;;4957975;29;20028;-65
2023/12/10 10:17:28;;;;;;;42.80;21.20;;;7.30;79.30;;;;;;4957691;29;20027;-67
2023/12/10 10:19:55;;;;;;;49.67;24.92;;;7.30;79.20;;;;;;4958101;29;20023;-68
2023/12/10 10:22:24;;;;;;;42.83;21.88;;;7.40;79.30;;;;;;4957473;29;20077;-67
2023/12/10 10:24:54;;;;;;;48.17;25.45;;;7.50;79.00;;;;;;4957579;29;20030;-67
2023/12/10 10:27:21;;;;;;;48.92;25.52;;;7.50;77.90;;;;;;4957715;29;20448;-69
2023/12/10 10:29:54;;;;;;;43.17;21.95;;;7.50;78.30;;;;;;4956432;29;20058;-67
2023/12/10 10:32:21;;;;;;;42.45;21.60;;;7.50;78.50;;;;;;4957265;29;20027;-68
2023/12/10 10:34:48;;;;;;;42.50;21.55;;;7.50;78.50;;;;;;4956289;29;20023;-69
2023/12/10 10:37:15;;;;;;;40.35;21.05;;;7.60;78.70;;;;;;4957607;29;20015;-66
2023/12/10 10:39:45;;;;;;;47.72;23.65;;;7.70;78.50;;;;;;4957800;29;20500;-66
2023/12/10 10:42:12;;;;;;;45.67;24.20;;;7.80;78.60;;;;;;4957494;29;20488;-68
2023/12/10 10:44:41;;;;;;;44.13;21.33;;;7.80;78.10;;;;;;4957772;29;20031;-68
2023/12/10 10:47:08;;;;;;;47.15;23.95;;;7.80;77.80;;;;;;4957030;29;20106;-67
2023/12/10 10:49:41;;;;;;;47.10;23.38;;;7.80;77.60;;;;;;4957128;29;20031;-67
2023/12/10 10:52:12;;;;;;;46.17;23.40;;;7.80;77.90;;;;;;4957108;29;20031;-66
2023/12/10 10:54:40;;;;;;;45.88;22.38;;;7.80;77.80;;;;;;4957082;29;20027;-67
2023/12/10 10:57:06;;;;;;;46.90;24.38;;;7.90;77.80;;;;;;4957088;29;20099;-68
2023/12/10 10:59:33;;;;;;;54.55;27.48;;;7.90;77.90;;;;;;4961713;28;20081;-69
2023/12/10 11:02:08;;;;;;;52.78;26.02;;;7.90;78.00;;;;;;4957065;29;20035;-69
2023/12/10 11:04:41;;;;;;;50.72;25.50;;;8.00;77.90;;;;;;4968745;28;20042;-72
2023/12/10 11:07:08;;;;;;;46.38;23.88;;;8.10;77.70;;;;;;4976455;28;20054;-69
2023/12/10 11:09:58;;;;;;;46.90;24.08;;;8.20;77.90;;;;;;4976185;28;20078;-70
2023/12/10 11:12:42;;;;;;;50.78;25.30;;;8.20;78.00;;;;;;4968446;28;20035;-72
2023/12/10 11:15:20;;;;;;;51.80;26.33;;;8.30;77.50;;;;;;4957446;28;20027;-70
2023/12/10 11:17:58;;;;;;;48.42;24.65;;;8.40;77.00;;;;;;4960356;29;20031;-68
2023/12/10 11:20:43;;;;;;;49.00;25.20;;;8.40;77.30;;;;;;4960137;29;20030;-71
2023/12/10 11:23:11;;;;;;;40.50;22.13;;;8.40;77.20;;;;;;4961602;29;20027;-69
2023/12/10 11:25:39;;;;;;;51.05;27.08;;;8.40;76.80;;;;;;4959913;29;20035;-70
2023/12/10 11:28:13;;;;;;;49.83;25.85;;;8.40;76.40;;;;;;4960605;29;20038;-70
2023/12/10 11:30:40;;;;;;;45.35;22.20;;;8.40;76.50;;;;;;4960420;29;20027;-72
2023/12/10 11:33:07;;;;;;;45.80;24.27;;;8.40;76.70;;;;;;4960347;29;20110;-69
2023/12/10 11:35:41;;;;;;;45.00;23.27;;;8.50;76.70;;;;;;4960467;28;20101;-69
2023/12/10 11:38:08;;;;;;;46.72;25.25;;;8.50;76.40;;;;;;4965903;28;20027;-69
2023/12/10 11:40:35;;;;;;;43.03;22.60;;;8.60;76.50;;;;;;4946899;28;20037;-71
2023/12/10 11:43:05;;;;;;;49.42;26.40;;;8.70;76.60;;;;;;4977917;28;20050;-68
2023/12/10 11:45:31;;;;;;;53.13;27.63;;;8.90;76.10;;;;;;4972996;28;20118;-66
2023/12/10 11:47:58;;;;;;;45.05;25.23;;;8.90;76.00;;;;;;4966863;28;20031;-67
2023/12/10 11:50:24;;;;;;;56.58;28.55;;;9.00;75.70;;;;;;4960004;29;20055;-77
2023/12/10 11:52:50;;;;;;;50.70;26.67;;;9.10;76.00;;;;;;4960146;29;20360;-69
2023/12/10 11:55:17;;;;;;;43.22;23.58;;;9.10;75.90;;;;;;4958771;29;20051;-68
2023/12/10 11:57:44;;;;;;;50.47;25.15;;;9.10;75.80;;;;;;4958417;29;20031;-70
2023/12/10 12:00:14;;;;;;;52.13;26.65;;;9.10;75.60;;;;;;4958614;29;20098;-69
2023/12/10 12:02:45;;;;;;;49.90;27.52;;;9.10;75.40;;;;;;4958819;29;20031;-66
2023/12/10 12:05:13;;;;;;;46.40;25.08;;;9.10;74.60;;;;;;4958978;29;20558;-66
2023/12/10 12:07:41;;;;;;;49.63;25.77;;;9.00;74.80;;;;;;4957732;29;20039;-77
2023/12/10 12:10:08;;;;;;;51.25;26.30;;;8.90;75.10;;;;;;4958759;29;20138;-69
2023/12/10 12:12:48;;;;;;;53.22;26.35;;;8.90;75.40;;;;;;4958433;29;20023;-69
2023/12/10 12:15:15;;;;;;;50.78;27.58;;;9.00;75.70;;;;;;4960369;29;20139;-68
2023/12/10 12:17:42;;;;;;;51.67;27.55;;;9.10;74.50;;;;;;4960390;29;20035;-76
2023/12/10 12:20:16;;;;;;;48.97;25.95;;;9.20;75.30;;;;;;4959612;29;20062;-69
2023/12/10 12:22:42;;;;;;;42.50;24.13;;;9.30;75.50;;;;;;4959571;29;20145;-65
2023/12/10 12:25:09;;;;;;;46.97;26.25;;;9.40;75.00;;;;;;4958651;29;20027;-68
2023/12/10 12:27:35;;;;;;;51.13;26.73;;;9.40;75.10;;;;;;4959718;28;20030;-66
2023/12/10 12:30:02;;;;;;;46.15;26.20;;;9.40;74.40;;;;;;4960015;29;20027;-67
2023/12/10 12:32:28;;;;;;;45.45;26.40;;;9.40;74.20;;;;;;4959628;29;20110;-69
2023/12/10 12:34:54;;;;;;;48.15;25.38;;;9.50;74.00;;;;;;4959393;29;20098;-68
2023/12/10 12:39:56;;;;;;;43.33;23.88;;;9.50;74.40;;;;;;5117635;23;20051;-73